Aérodrome :
LOGIN :

S'inscrire | Disclaimer

   EN    FR    IT 

 










Légende :    VFR   VFR Marginal   IFR   IFR Intensif   IFR Très Intensif
Visi : 
Plafond : 
>= 8 km
>= 3000ft
5 à 8 km
1000 à 3000 ft
1500m à 5 km
500 à 1000 ft
800 à 1500m
200 à 500 ft
< 800m
< 200 ft
Symboles :   Orages  Brouillard  Fortes neiges  Fortes précipitations  Vent > 20 kt
SIGMETs :   Divers  Orages  Givrage  Turbulence  Onde Orograph.  Cendres Volcan.







- Altitude de l'aérodrome : 53 ft
- Code IATA : HAM


EDDH - Hamburg

DERNIER METAR :
  • 251950Z 23004KT 9999 FEW048 04/00 Q1007 NOSIG

METARs EXPIRÉS :
  • 251920Z 25003KT 9999 FEW046 05/00 Q1007 NOSIG
  • 251850Z 28006KT 9999 FEW042 06/M01 Q1007 NOSIG
  • 251820Z 28005KT 230V300 9999 FEW037 06/M01 Q1007 NOSIG
  • 251750Z 27008KT 230V300 9999 FEW040 07/M01 Q1007 NOSIG

TAF TAF EDDH
Valide du 25 à 18h jusqu'au 27 à 00h UTC


251700Z 2518/2624 27006KT 9999 SCT040
TEMPO 2610/2618 4000 SHRAGS BKN020CB
PROB30
TEMPO 2612/2616 28015G30KT TSRA
Pas de NOTAMs connus pour ce terrain.
1 SIGMET publié pour la FIR Bremen (EDWW) :
 
Turbulence forte
EDWW SIGMET 1 VALID 252015/260000 EDZH
EDWW BREMEN FIR SEV TURB FCST N OF N5345 AND E OF E01100 FL170/230 MOV NE NC=



MET'MAP, la Météo Aéronautique d'un coup d'oeil ! - Copyright ORBIFLY Décembre 2007 - Disclaimer

ORBIFLY MET'MAP TEAM :

Programmation & Développement : Alexandra Zaïnal
Conception & Développement : Baudouin d'Aumeries
Co-Programmation & Développement : Marc-Olivier Méhu
Soutien technique & logistique : Manuel Goepfert

Contact : metmap@orbifly.com




SOURCES & CREDITS :

   NOAA